Time;durP1;ratioP1;P1;durP2;ratioP2;P2;SDS_P1;SDS_P2;PMS_P1;PMS_P2;Temp;Humidity;BMP_temperature;BMP_pressure;BME280_temperature;BME280_humidity;BME280_pressure;Samples;Min_cycle;Max_cycle;Signal;HPM_P1;HPM_P2
2021/12/01 00:02:19;;;;;;;1.88;1.60;;;;;;;4.33;84.25;98299.25;2617917;46;20570;-69
2021/12/01 00:04:49;;;;;;;2.10;1.90;;;;;;;4.31;84.50;98296.78;2618095;54;20078;-69
2021/12/01 00:07:22;;;;;;;2.25;2.05;;;;;;;4.35;84.61;98279.78;2618412;54;20045;-69
2021/12/01 00:09:52;;;;;;;1.50;1.40;;;;;;;4.35;84.11;98281.56;2618081;54;20041;-70
2021/12/01 00:12:22;;;;;;;1.50;1.40;;;;;;;4.33;83.80;98273.09;2617960;54;20041;-69
2021/12/01 00:14:51;;;;;;;1.55;1.45;;;;;;;4.29;84.07;98266.56;2618083;54;20064;-71
2021/12/01 00:17:21;;;;;;;1.67;1.58;;;;;;;4.31;83.91;98260.16;2618020;54;20572;-69
2021/12/01 00:19:50;;;;;;;1.52;1.42;;;;;;;4.31;84.00;98262.75;2617863;54;20035;-69
2021/12/01 00:22:23;;;;;;;1.63;1.52;;;;;;;4.32;84.30;98263.59;2618096;54;20041;-69
2021/12/01 00:24:53;;;;;;;1.38;1.27;;;;;;;4.31;83.41;98243.63;2618184;54;20038;-69
2021/12/01 00:27:23;;;;;;;1.90;1.08;;;;;;;4.29;83.85;98256.09;2617732;47;20030;-69
2021/12/01 00:29:53;;;;;;;1.63;1.30;;;;;;;4.27;83.70;98245.75;2618063;47;20034;-68
2021/12/01 00:32:23;;;;;;;1.50;1.40;;;;;;;4.31;84.18;98252.31;2621865;54;20035;-69
2021/12/01 00:34:53;;;;;;;1.15;1.05;;;;;;;4.30;84.05;98248.06;2623123;54;20062;-69
2021/12/01 00:37:25;;;;;;;1.60;1.50;;;;;;;4.31;83.92;98227.94;2623314;51;20034;-69
2021/12/01 00:39:55;;;;;;;1.48;1.38;;;;;;;4.31;83.41;98233.97;2623992;47;20086;-70
2021/12/01 00:42:25;;;;;;;1.40;1.30;;;;;;;4.28;83.50;98221.22;2624646;47;20031;-69
2021/12/01 00:45:00;;;;;;;1.40;1.20;;;;;;;4.29;83.61;98219.44;2625092;54;20580;-70
2021/12/01 00:47:42;;;;;;;1.40;1.30;;;;;;;4.26;83.60;98219.78;2624554;47;20530;-70
2021/12/01 00:50:13;;;;;;;1.60;1.50;;;;;;;4.23;83.96;98216.50;2622540;54;20621;-69
2021/12/01 00:52:46;;;;;;;1.80;1.55;;;;;;;4.27;84.06;98210.94;2619904;39;20448;-70
2021/12/01 00:55:15;;;;;;;1.73;1.40;;;;;;;4.25;84.13;98203.28;2619248;54;20558;-70
2021/12/01 00:57:45;;;;;;;1.63;1.52;;;;;;;4.29;84.03;98201.94;2625548;54;20541;-70
2021/12/01 01:00:16;;;;;;;2.83;1.52;;;;;;;4.30;83.57;98197.53;2624591;54;20049;-70
2021/12/01 01:02:46;;;;;;;1.55;1.45;;;;;;;4.26;84.01;98189.19;2624924;39;20422;-69
2021/12/01 01:05:16;;;;;;;1.42;1.33;;;;;;;4.26;84.17;98173.50;2619916;54;20030;-70
2021/12/01 01:07:49;;;;;;;1.70;1.60;;;;;;;4.25;84.40;98182.34;2619392;54;20038;-69
2021/12/01 01:10:45;;;;;;;1.73;1.60;;;;;;;4.24;84.28;98178.06;2618546;54;20053;-69
2021/12/01 01:18:47;;;;;;;2.03;1.83;;;;;;;4.23;84.42;98166.78;2618690;54;20037;-69
2021/12/01 01:21:17;;;;;;;1.75;1.65;;;;;;;4.23;84.81;98163.34;2622822;54;20025;-71
2021/12/01 01:23:50;;;;;;;1.90;1.80;;;;;;;4.22;84.26;98165.16;2624044;54;20030;-70
2021/12/01 01:26:21;;;;;;;2.15;1.95;;;;;;;4.25;84.86;98158.78;2623587;47;20049;-71
2021/12/01 01:28:52;;;;;;;2.40;2.20;;;;;;;4.25;84.43;98169.25;2623168;47;20031;-70
2021/12/01 01:31:23;;;;;;;2.20;2.00;;;;;;;4.24;84.74;98167.59;2622800;54;20026;-71
2021/12/01 01:33:53;;;;;;;2.47;2.20;;;;;;;4.25;84.67;98158.78;2619328;54;20038;-70
2021/12/01 01:36:23;;;;;;;2.60;2.40;;;;;;;4.26;84.85;98149.94;2619399;47;20043;-70
2021/12/01 01:38:56;;;;;;;2.13;1.90;;;;;;;4.21;84.66;98147.03;2619431;54;20026;-70
2021/12/01 01:41:27;;;;;;;1.67;1.58;;;;;;;4.24;84.48;98138.81;2618788;54;20038;-71
2021/12/01 01:43:57;;;;;;;2.10;1.90;;;;;;;4.25;84.60;98148.31;2618418;54;20038;-70
2021/12/01 01:46:33;;;;;;;2.30;2.10;;;;;;;4.25;84.95;98134.44;2618842;47;20034;-71
2021/12/01 01:49:10;;;;;;;2.28;2.08;;;;;;;4.25;84.69;98130.00;2620044;54;20041;-70
2021/12/01 01:51:41;;;;;;;3.42;2.70;;;;;;;4.25;85.08;98132.63;2619141;54;20037;-70
2021/12/01 01:54:13;;;;;;;3.70;1.75;;;;;;;4.25;84.75;98121.34;2618952;39;20194;-70
2021/12/01 01:56:44;;;;;;;2.60;2.40;;;;;;;4.27;84.92;98119.38;2619208;54;20038;-69
2021/12/01 01:59:14;;;;;;;2.70;2.47;;;;;;;4.25;84.51;98106.47;2618706;54;20034;-69
2021/12/01 02:01:53;;;;;;;4.40;3.00;;;;;;;4.27;84.62;98104.47;2619481;54;20529;-70
2021/12/01 02:04:25;;;;;;;2.20;2.00;;;;;;;4.30;84.69;98095.47;2622689;54;20038;-70
2021/12/01 02:06:56;;;;;;;2.42;2.22;;;;;;;4.33;84.20;98100.38;2620298;54;20058;-70
2021/12/01 02:09:30;;;;;;;3.00;2.40;;;;;;;4.30;84.19;98095.47;2619152;54;20029;-71
2021/12/01 02:12:03;;;;;;;3.65;2.88;;;;;;;4.29;84.15;98099.09;2619510;39;20109;-70
2021/12/01 02:14:33;;;;;;;2.80;2.50;;;;;;;4.30;84.78;98092.88;2618268;47;20026;-70
2021/12/01 02:17:03;;;;;;;3.20;2.90;;;;;;;4.30;84.90;98101.53;2619086;47;20038;-71
2021/12/01 02:19:33;;;;;;;5.15;3.90;;;;;;;4.30;84.94;98077.16;2617907;54;20026;-70
2021/12/01 02:22:09;;;;;;;5.40;4.43;;;;;;;4.32;85.14;98091.69;2618516;54;20034;-70
2021/12/01 02:24:38;;;;;;;3.60;3.25;;;;;;;4.33;85.10;98085.50;2618553;39;20429;-71
2021/12/01 02:27:09;;;;;;;6.72;4.68;;;;;;;4.33;84.99;98085.50;2618202;54;20038;-70
2021/12/01 02:29:39;;;;;;;6.55;5.00;;;;;;;4.32;84.91;98067.34;2617545;47;20045;-69
2021/12/01 02:32:10;;;;;;;7.70;4.88;;;;;;;4.31;85.53;98065.72;2617448;47;20026;-69
2021/12/01 02:34:44;;;;;;;7.65;5.30;;;;;;;4.34;85.69;98057.53;2617893;46;20035;-69
2021/12/01 02:37:16;;;;;;;6.63;5.40;;;;;;;4.37;85.51;98050.16;2617823;47;20030;-70
2021/12/01 02:39:46;;;;;;;7.70;6.05;;;;;;;4.36;85.93;98045.06;2618485;39;20518;-70
2021/12/01 02:42:22;;;;;;;7.38;5.38;;;;;;;4.41;85.95;98040.16;2617444;51;20042;-70
2021/12/01 02:44:52;;;;;;;6.03;4.43;;;;;;;4.43;85.54;98035.56;2617978;54;20034;-70
2021/12/01 02:47:21;;;;;;;6.55;5.32;;;;;;;4.44;85.51;98024.09;2617610;54;20070;-70
2021/12/01 02:49:54;;;;;;;7.07;5.38;;;;;;;4.46;85.33;98014.28;2616594;47;20035;-69
2021/12/01 02:52:27;;;;;;;5.80;4.75;;;;;;;4.48;85.33;98026.19;2616596;54;20026;-69
2021/12/01 02:54:58;;;;;;;7.30;5.25;;;;;;;4.52;85.37;98004.91;2616710;54;20049;-70
2021/12/01 02:57:28;;;;;;;6.07;4.50;;;;;;;4.53;85.24;97999.53;2616689;47;20026;-70
2021/12/01 02:59:58;;;;;;;5.18;4.63;;;;;;;4.55;84.65;97992.28;2616654;54;20057;-70
2021/12/01 03:02:28;;;;;;;5.05;4.25;;;;;;;4.56;84.42;97985.25;2616621;50;20031;-70
2021/12/01 03:04:58;;;;;;;4.95;4.45;;;;;;;4.54;84.31;97990.66;2616436;54;20554;-70
2021/12/01 03:07:31;;;;;;;4.95;4.30;;;;;;;4.54;84.02;97982.00;2616732;47;20042;-70
2021/12/01 03:10:02;;;;;;;4.35;3.92;;;;;;;4.52;84.17;97973.50;2616619;46;20577;-69
2021/12/01 03:12:33;;;;;;;4.78;4.20;;;;;;;4.54;84.58;97972.34;2616808;47;20031;-70
2021/12/01 03:15:03;;;;;;;4.70;4.03;;;;;;;4.56;84.34;97969.53;2617621;47;20301;-71
2021/12/01 03:17:36;;;;;;;6.10;3.30;;;;;;;4.56;84.03;97964.31;2617399;54;20082;-71
2021/12/01 03:20:10;;;;;;;4.20;3.42;;;;;;;4.53;83.77;97948.94;2617608;47;20039;-72
2021/12/01 03:22:44;;;;;;;5.40;3.75;;;;;;;4.52;83.92;97960.41;2617752;39;20409;-70
2021/12/01 03:25:16;;;;;;;4.10;3.70;;;;;;;4.57;84.13;97945.84;2617563;46;20035;-70
2021/12/01 03:27:46;;;;;;;4.25;3.83;;;;;;;4.57;83.89;97937.97;2618235;51;20038;-70
2021/12/01 03:30:22;;;;;;;5.38;4.38;;;;;;;4.57;84.02;97945.84;2618441;47;20045;-70
2021/12/01 03:32:52;;;;;;;4.07;3.73;;;;;;;4.59;84.36;97941.22;2617778;47;20126;-70
2021/12/01 03:35:22;;;;;;;4.80;4.30;;;;;;;4.58;84.03;97928.31;2618515;54;20038;-71
2021/12/01 03:37:55;;;;;;;6.05;4.65;;;;;;;4.58;83.94;97915.22;2618901;39;20414;-71
2021/12/01 03:40:26;;;;;;;5.10;4.57;;;;;;;4.58;84.38;97918.66;2618590;39;20116;-71
2021/12/01 03:42:56;;;;;;;7.45;4.90;;;;;;;4.58;84.01;97921.28;2617832;47;20573;-70
2021/12/01 03:45:27;;;;;;;5.03;4.53;;;;;;;4.63;84.38;97912.88;2618954;39;20430;-71
2021/12/01 03:47:58;;;;;;;5.22;4.43;;;;;;;4.62;84.03;97924.38;2619061;54;20034;-70
2021/12/01 03:50:28;;;;;;;6.13;4.55;;;;;;;4.63;84.39;97907.66;2618238;47;20027;-71
2021/12/01 03:53:04;;;;;;;7.75;4.50;;;;;;;4.64;84.20;97914.50;2618033;47;20558;-70
2021/12/01 03:55:35;;;;;;;8.40;4.95;;;;;;;4.62;84.05;97899.00;2618807;39;20414;-68
2021/12/01 03:58:05;;;;;;;5.47;4.65;;;;;;;4.63;83.75;97890.13;2618565;47;20030;-68
2021/12/01 04:00:35;;;;;;;6.65;4.28;;;;;;;4.60;83.88;97890.50;2619014;54;20549;-67
2021/12/01 04:03:05;;;;;;;4.88;3.90;;;;;;;4.62;83.47;97875.44;2618647;54;20038;-67
2021/12/01 04:05:35;;;;;;;5.22;3.70;;;;;;;4.62;83.83;97874.63;2622091;47;20030;-68
2021/12/01 04:08:09;;;;;;;5.25;3.92;;;;;;;4.61;83.33;97857.25;2622509;54;20038;-67
2021/12/01 04:10:39;;;;;;;6.20;4.35;;;;;;;4.57;83.41;97856.00;2622764;54;20541;-68
2021/12/01 04:13:08;;;;;;;5.43;4.32;;;;;;;4.60;83.81;97847.78;2623330;54;20027;-67
2021/12/01 04:15:38;;;;;;;4.40;3.53;;;;;;;4.59;83.27;97849.59;2624044;54;20030;-69
2021/12/01 04:18:08;;;;;;;5.88;4.43;;;;;;;4.59;83.57;97840.94;2624314;54;20039;-69
2021/12/01 04:20:37;;;;;;;4.40;4.00;;;;;;;4.56;83.48;97826.41;2623169;54;20034;-69
2021/12/01 04:23:10;;;;;;;5.38;4.03;;;;;;;4.59;83.26;97817.38;2622177;54;20033;-69
2021/12/01 04:25:40;;;;;;;4.75;4.10;;;;;;;4.60;83.39;97821.63;2619815;54;20038;-68
2021/12/01 04:28:09;;;;;;;6.20;4.28;;;;;;;4.62;83.42;97820.47;2619845;54;20038;-69
2021/12/01 04:30:39;;;;;;;5.65;4.50;;;;;;;4.64;83.39;97812.41;2617354;54;20030;-69
2021/12/01 04:33:09;;;;;;;7.28;4.72;;;;;;;4.62;82.90;97802.13;2617611;47;20547;-69
2021/12/01 04:35:39;;;;;;;4.97;4.20;;;;;;;4.63;83.13;97788.03;2617614;47;20054;-69
2021/12/01 04:38:11;;;;;;;4.88;4.32;;;;;;;4.67;82.91;97781.47;2617526;47;20031;-69
2021/12/01 04:40:41;;;;;;;5.28;4.25;;;;;;;4.70;82.70;97778.50;2618114;54;20035;-69
2021/12/01 04:43:11;;;;;;;11.00;4.70;;;;;;;4.70;82.42;97773.25;2617339;47;20054;-70
2021/12/01 04:45:42;;;;;;;4.85;3.70;;;;;;;4.71;82.22;97777.50;2617522;54;20025;-70
2021/12/01 04:48:13;;;;;;;4.18;3.55;;;;;;;4.75;82.36;97777.13;2618260;47;20035;-69
2021/12/01 04:50:43;;;;;;;5.38;4.07;;;;;;;4.73;82.14;97761.59;2618904;47;20045;-69
2021/12/01 04:53:16;;;;;;;3.47;2.85;;;;;;;4.74;81.59;97768.47;2618251;47;20031;-69
2021/12/01 04:55:47;;;;;;;6.13;4.30;;;;;;;4.74;81.98;97744.09;2618110;47;20035;-69
2021/12/01 04:58:17;;;;;;;5.05;4.25;;;;;;;4.78;81.82;97755.84;2618269;47;20039;-70
2021/12/01 05:00:47;;;;;;;4.65;3.70;;;;;;;4.81;81.80;97755.44;2618613;54;20053;-70
2021/12/01 05:03:17;;;;;;;7.22;4.38;;;;;;;4.81;81.80;97758.88;2618914;54;20054;-70
2021/12/01 05:05:52;;;;;;;4.25;3.40;;;;;;;4.80;82.08;97744.16;2618508;46;20038;-69
2021/12/01 05:08:25;;;;;;;5.10;3.60;;;;;;;4.80;82.21;97746.78;2618441;47;20027;-70
2021/12/01 05:10:55;;;;;;;5.13;3.75;;;;;;;4.80;82.24;97740.75;2618313;54;20030;-69
2021/12/01 05:13:24;;;;;;;6.57;4.03;;;;;;;4.78;82.08;97724.41;2618656;54;20122;-69
2021/12/01 05:15:54;;;;;;;8.43;3.45;;;;;;;4.81;82.37;97727.47;2618550;39;20445;-70
2021/12/01 05:18:25;;;;;;;5.57;3.33;;;;;;;4.85;82.12;97725.28;2617995;47;20030;-69
2021/12/01 05:20:54;;;;;;;4.28;3.40;;;;;;;4.86;82.39;97726.94;2618014;47;20054;-69
2021/12/01 05:23:27;;;;;;;4.05;3.17;;;;;;;4.90;82.09;97723.78;2618135;54;20043;-69
2021/12/01 05:25:57;;;;;;;6.00;3.60;;;;;;;4.92;82.24;97716.53;2618354;54;20026;-68
2021/12/01 05:28:26;;;;;;;5.97;3.40;;;;;;;4.94;81.80;97724.22;2618787;54;20039;-69
2021/12/01 05:30:56;;;;;;;5.50;3.58;;;;;;;4.97;82.40;97713.34;2618387;54;20042;-70
2021/12/01 05:33:26;;;;;;;5.55;3.55;;;;;;;5.02;81.92;97711.03;2618428;47;20039;-70
2021/12/01 05:35:56;;;;;;;5.22;3.40;;;;;;;5.01;81.58;97705.94;2618562;54;20046;-69
2021/12/01 05:38:29;;;;;;;6.60;3.67;;;;;;;5.01;81.57;97705.94;2619378;54;20026;-68
2021/12/01 05:41:02;;;;;;;3.92;3.03;;;;;;;5.03;81.53;97701.34;2619671;54;20538;-69
2021/12/01 05:43:32;;;;;;;3.55;2.75;;;;;;;5.02;81.55;97686.59;2619006;54;20037;-70
2021/12/01 05:46:02;;;;;;;5.32;3.80;;;;;;;5.05;81.70;97701.97;2618913;54;20018;-71
2021/12/01 05:48:34;;;;;;;7.13;3.15;;;;;;;5.05;81.83;97675.78;2619035;54;20057;-71
2021/12/01 05:51:04;;;;;;;3.45;2.97;;;;;;;5.05;81.40;97670.53;2619075;39;20414;-68
2021/12/01 05:53:37;;;;;;;4.10;3.25;;;;;;;5.06;81.23;97664.28;2619209;39;20403;-69
2021/12/01 05:56:07;;;;;;;5.00;3.65;;;;;;;5.07;81.65;97658.88;2618930;54;20041;-69
2021/12/01 05:58:37;;;;;;;6.97;2.97;;;;;;;5.07;81.65;97658.88;2617920;47;20030;-69
2021/12/01 06:01:07;;;;;;;3.33;3.03;;;;;;;5.09;81.01;97656.88;2619314;39;20435;-69
2021/12/01 06:03:38;;;;;;;5.03;3.50;;;;;;;5.12;80.84;97647.84;2618200;46;20026;-70
2021/12/01 06:06:08;;;;;;;3.40;2.80;;;;;;;5.12;81.18;97651.28;2618652;54;20023;-70
2021/12/01 06:08:41;;;;;;;3.17;2.88;;;;;;;5.13;81.33;97646.84;2619307;39;20407;-68
2021/12/01 06:11:11;;;;;;;4.30;2.78;;;;;;;5.12;81.20;97650.47;2618182;54;20059;-70
2021/12/01 06:13:48;;;;;;;2.97;2.60;;;;;;;5.15;81.66;97645.66;2618716;54;20035;-69
2021/12/01 06:16:20;;;;;;;3.25;1.98;;;;;;;5.15;81.48;97634.38;2619153;54;20038;-69
2021/12/01 06:18:50;;;;;;;3.67;2.40;;;;;;;5.11;81.87;97630.50;2618992;54;20038;-69
2021/12/01 06:21:20;;;;;;;4.20;3.00;;;;;;;5.12;82.17;97622.44;2618309;47;20030;-69
2021/12/01 06:23:52;;;;;;;2.92;2.67;;;;;;;5.15;82.02;97624.72;2618293;47;20030;-69
2021/12/01 06:26:22;;;;;;;2.45;2.15;;;;;;;5.18;81.77;97613.88;2621779;54;20154;-69
2021/12/01 06:28:52;;;;;;;2.63;2.30;;;;;;;5.16;82.13;97583.59;2620766;47;20041;-68
2021/12/01 06:31:22;;;;;;;2.90;2.50;;;;;;;5.17;82.28;97572.13;2621140;46;20026;-69
2021/12/01 06:33:51;;;;;;;2.95;2.50;;;;;;;5.20;81.92;97574.38;2620366;31;20510;-69
2021/12/01 06:36:21;;;;;;;3.13;2.30;;;;;;;5.20;82.03;97576.97;2619588;39;20447;-69
2021/12/01 06:38:54;;;;;;;4.43;2.55;;;;;;;5.20;82.40;97577.78;2618538;54;20030;-68
2021/12/01 06:41:23;;;;;;;4.25;2.72;;;;;;;5.25;82.40;97569.38;2618185;47;20034;-69
2021/12/01 06:43:53;;;;;;;3.67;3.03;;;;;;;5.22;82.24;97565.31;2618152;54;20031;-68
2021/12/01 06:46:25;;;;;;;3.90;2.90;;;;;;;5.26;82.28;97564.94;2618188;54;20145;-68
2021/12/01 06:48:55;;;;;;;4.05;3.13;;;;;;;5.27;82.40;97562.13;2619016;54;20038;-68
2021/12/01 06:51:25;;;;;;;3.58;2.78;;;;;;;5.25;82.74;97558.88;2618604;54;20045;-68
2021/12/01 06:53:58;;;;;;;3.70;2.80;;;;;;;5.24;83.01;97556.47;2618462;47;20030;-69
2021/12/01 06:56:28;;;;;;;3.47;2.30;;;;;;;5.24;82.66;97552.03;2618496;47;20538;-68
2021/12/01 06:58:58;;;;;;;4.55;3.40;;;;;;;5.26;82.85;97544.78;2618436;47;20026;-69
2021/12/01 07:01:27;;;;;;;3.42;3.13;;;;;;;5.26;82.83;97557.06;2618673;39;20450;-69
2021/12/01 07:03:58;;;;;;;2.38;2.17;;;;;;;5.25;83.14;97558.06;2618486;54;20053;-69
2021/12/01 07:06:27;;;;;;;3.25;2.38;;;;;;;5.27;83.27;97546.41;2619321;54;20041;-70
2021/12/01 07:09:02;;;;;;;4.60;3.33;;;;;;;5.24;83.29;97553.84;2621339;54;20035;-69
2021/12/01 07:11:32;;;;;;;4.18;2.53;;;;;;;5.22;83.13;97533.06;2622747;47;20542;-70
2021/12/01 07:14:02;;;;;;;5.28;2.30;;;;;;;5.21;83.53;97527.00;2623529;54;20034;-70
2021/12/01 07:16:32;;;;;;;3.13;2.05;;;;;;;5.25;83.53;97531.88;2622855;54;20034;-70
2021/12/01 07:19:02;;;;;;;3.03;2.50;;;;;;;5.27;83.84;97525.47;2622615;54;20037;-71
2021/12/01 07:21:32;;;;;;;3.45;3.00;;;;;;;5.23;83.89;97511.13;2620792;54;20038;-69
2021/12/01 07:24:06;;;;;;;4.45;2.35;;;;;;;5.26;83.97;97518.56;2621335;54;20131;-69
2021/12/01 07:26:36;;;;;;;2.35;2.00;;;;;;;5.25;83.76;97516.97;2621987;54;20031;-69
2021/12/01 07:29:06;;;;;;;2.53;1.88;;;;;;;5.30;84.02;97500.66;2619853;47;20034;-68
2021/12/01 07:31:37;;;;;;;3.38;2.00;;;;;;;5.34;83.46;97489.59;2619412;54;20037;-69
2021/12/01 07:34:06;;;;;;;3.72;2.60;;;;;;;5.40;83.76;97488.84;2621220;54;20031;-68
2021/12/01 07:36:36;;;;;;;2.03;1.85;;;;;;;5.39;83.39;97484.63;2623374;39;20399;-68
2021/12/01 07:39:08;;;;;;;2.45;1.80;;;;;;;5.42;83.29;97480.78;2622314;54;20030;-68
2021/12/01 07:41:38;;;;;;;2.70;1.95;;;;;;;5.43;83.25;97461.47;2620235;54;20061;-67
2021/12/01 07:44:08;;;;;;;2.17;1.95;;;;;;;5.47;83.12;97467.94;2618498;46;20050;-67
2021/12/01 07:46:38;;;;;;;1.98;1.70;;;;;;;5.52;83.25;97469.97;2619176;54;20099;-67
2021/12/01 07:49:08;;;;;;;2.03;1.40;;;;;;;5.53;83.40;97453.25;2619513;54;20035;-67
2021/12/01 07:51:38;;;;;;;2.05;1.85;;;;;;;5.53;83.47;97442.75;2619977;54;20066;-69
2021/12/01 07:54:10;;;;;;;1.55;1.45;;;;;;;5.55;82.95;97431.09;2619931;54;20041;-67
2021/12/01 07:56:39;;;;;;;1.63;1.52;;;;;;;5.58;83.02;97433.31;2619464;47;20045;-65
2021/12/01 07:59:10;;;;;;;1.48;1.30;;;;;;;5.57;82.89;97413.34;2620327;54;20562;-67
2021/12/01 08:01:40;;;;;;;1.50;1.40;;;;;;;5.57;82.94;97417.78;2619806;54;20023;-68
2021/12/01 08:04:10;;;;;;;2.85;1.52;;;;;;;5.58;83.47;97414.16;2619972;47;20116;-66
2021/12/01 08:06:43;;;;;;;2.83;1.33;;;;;;;5.63;83.29;97407.34;2620230;54;20042;-66
2021/12/01 08:09:15;;;;;;;2.63;1.35;;;;;;;5.62;83.39;97413.56;2621680;39;20438;-67
2021/12/01 08:11:45;;;;;;;0.93;0.93;;;;;;;5.66;83.51;97396.44;2621263;54;20042;-66
2021/12/01 08:14:14;;;;;;;1.20;1.00;;;;;;;5.67;82.91;97390.22;2620514;47;20070;-68
2021/12/01 08:16:44;;;;;;;2.25;1.30;;;;;;;5.71;83.33;97375.69;2621780;54;20558;-67
2021/12/01 08:19:14;;;;;;;2.95;1.10;;;;;;;5.72;83.39;97374.69;2621058;54;20538;-67
2021/12/01 08:21:47;;;;;;;1.25;1.15;;;;;;;5.76;83.31;97393.47;2620862;54;20037;-67
2021/12/01 08:24:20;;;;;;;1.10;1.00;;;;;;;5.77;83.12;97374.09;2621157;54;20027;-67
2021/12/01 08:26:51;;;;;;;1.92;1.23;;;;;;;5.79;83.38;97377.31;2621376;54;20045;-67
2021/12/01 08:29:21;;;;;;;1.23;1.13;;;;;;;5.78;83.39;97380.16;2620329;47;20039;-67
2021/12/01 08:31:50;;;;;;;2.25;1.02;;;;;;;5.82;83.13;97370.88;2620594;54;20550;-67
2021/12/01 08:34:20;;;;;;;2.50;1.05;;;;;;;5.88;83.27;97367.47;2620737;54;20038;-67
2021/12/01 08:36:51;;;;;;;1.48;0.90;;;;;;;5.88;82.94;97363.03;2620774;54;20039;-67
2021/12/01 08:39:23;;;;;;;1.17;1.08;;;;;;;5.93;82.91;97351.97;2620030;54;20031;-67
2021/12/01 08:41:53;;;;;;;1.20;1.10;;;;;;;5.92;82.94;97361.66;2619539;54;20557;-67
2021/12/01 08:44:23;;;;;;;1.50;0.95;;;;;;;5.95;83.55;97337.66;2620498;54;20046;-67
2021/12/01 08:46:53;;;;;;;1.50;0.98;;;;;;;6.00;83.45;97326.59;2620245;39;20438;-67
2021/12/01 08:49:22;;;;;;;3.28;1.08;;;;;;;6.01;83.15;97343.94;2619045;54;20046;-67
2021/12/01 08:51:52;;;;;;;0.70;0.70;;;;;;;6.04;83.38;97335.66;2619162;54;20018;-67
2021/12/01 08:54:24;;;;;;;0.88;0.88;;;;;;;5.96;83.78;97348.97;2619029;54;20137;-67
2021/12/01 08:56:54;;;;;;;1.50;0.80;;;;;;;6.01;83.37;97333.44;2620412;54;20616;-68
2021/12/01 08:59:24;;;;;;;1.25;0.80;;;;;;;6.05;83.66;97326.78;2620399;54;20086;-67
2021/12/01 09:01:53;;;;;;;1.63;1.00;;;;;;;6.06;84.05;97323.16;2620137;54;20042;-67
2021/12/01 09:04:23;;;;;;;0.80;0.80;;;;;;;6.12;84.48;97322.38;2619495;46;20034;-67
2021/12/01 09:06:53;;;;;;;3.05;1.85;;;;;;;6.16;83.90;97323.59;2619964;54;20026;-67
2021/12/01 09:09:25;;;;;;;1.02;0.70;;;;;;;6.22;83.84;97313.28;2619449;54;20034;-67
2021/12/01 09:11:55;;;;;;;1.05;0.95;;;;;;;6.25;83.26;97307.63;2619979;39;20398;-67
2021/12/01 09:14:26;;;;;;;2.55;1.00;;;;;;;6.26;82.95;97322.38;2619770;54;20031;-67
2021/12/01 09:16:57;;;;;;;1.35;1.25;;;;;;;6.27;83.25;97308.22;2620517;54;20038;-67
2021/12/01 09:19:27;;;;;;;2.63;1.65;;;;;;;6.30;83.71;97306.00;2620197;54;20031;-67
2021/12/01 09:21:57;;;;;;;1.63;1.40;;;;;;;6.32;83.27;97309.22;2618817;54;20034;-67
2021/12/01 09:24:29;;;;;;;1.50;1.40;;;;;;;6.36;83.33;97313.06;2618657;46;20031;-67
2021/12/01 09:27:00;;;;;;;1.10;1.00;;;;;;;6.41;83.21;97310.66;2619002;54;20027;-67
2021/12/01 09:29:29;;;;;;;1.30;1.15;;;;;;;6.43;83.00;97294.69;2618965;54;20018;-67
2021/12/01 09:32:01;;;;;;;1.17;1.08;;;;;;;6.41;83.06;97304.63;2618409;54;20030;-67
2021/12/01 09:34:30;;;;;;;1.85;0.90;;;;;;;6.43;82.85;97295.50;2618770;54;20041;-67
2021/12/01 09:37:00;;;;;;;2.45;1.30;;;;;;;6.47;83.58;97285.41;2618935;54;20039;-67
2021/12/01 09:39:32;;;;;;;1.38;1.10;;;;;;;6.54;83.20;97280.97;2618995;54;20057;-67
2021/12/01 09:42:03;;;;;;;1.52;1.13;;;;;;;6.56;82.88;97262.38;2618395;46;20035;-67
2021/12/01 09:44:34;;;;;;;0.95;0.95;;;;;;;6.56;83.22;97260.56;2619711;54;20053;-68
2021/12/01 09:47:04;;;;;;;1.92;1.45;;;;;;;6.61;82.73;97259.94;2621441;47;20026;-67
2021/12/01 09:49:36;;;;;;;3.00;1.27;;;;;;;6.62;82.25;97249.25;2621918;54;20041;-68
2021/12/01 09:52:08;;;;;;;2.30;1.95;;;;;;;6.64;82.39;97238.53;2622372;54;20034;-68
2021/12/01 09:54:41;;;;;;;2.95;1.63;;;;;;;6.69;82.16;97222.94;2621700;54;20029;-68
2021/12/01 09:57:13;;;;;;;1.55;0.82;;;;;;;6.76;82.41;97223.75;2621129;54;20038;-67
2021/12/01 09:59:43;;;;;;;1.63;1.15;;;;;;;6.76;82.51;97225.56;2621708;54;20565;-67
2021/12/01 10:02:14;;;;;;;1.20;1.10;;;;;;;6.76;82.50;97218.50;2620285;54;20022;-68
2021/12/01 10:04:43;;;;;;;0.90;0.90;;;;;;;6.74;82.72;97217.91;2621525;54;20113;-66
2021/12/01 10:07:19;;;;;;;1.30;0.98;;;;;;;6.80;82.36;97218.91;2621149;54;20061;-66
2021/12/01 10:09:57;;;;;;;1.30;1.20;;;;;;;6.82;82.46;97195.88;2619660;54;20035;-66
2021/12/01 10:12:44;;;;;;;1.20;1.10;;;;;;;6.85;82.40;97185.72;2618580;39;20426;-66
2021/12/01 10:15:14;;;;;;;1.02;0.70;;;;;;;6.88;82.51;97176.63;2618874;54;20034;-66
2021/12/01 10:17:44;;;;;;;1.02;0.90;;;;;;;6.92;82.39;97169.94;2618579;54;20038;-66
2021/12/01 10:20:16;;;;;;;0.75;0.60;;;;;;;6.90;81.88;97182.50;2618666;54;20039;-66
2021/12/01 10:23:11;;;;;;;1.15;1.00;;;;;;;6.98;82.49;97158.63;2618274;54;20065;-66
2021/12/01 10:25:45;;;;;;;1.08;0.98;;;;;;;7.06;81.95;97149.66;2618481;54;20026;-66
2021/12/01 10:28:34;;;;;;;1.80;1.70;;;;;;;7.03;81.66;97148.28;2618734;54;20066;-66
2021/12/01 10:31:04;;;;;;;1.50;1.40;;;;;;;6.95;81.36;97159.84;2618641;39;20434;-66
2021/12/01 10:33:34;;;;;;;0.60;0.60;;;;;;;7.00;81.78;97159.19;2618411;54;20034;-66
2021/12/01 10:36:07;;;;;;;1.20;1.10;;;;;;;6.97;82.00;97135.97;2618638;54;20039;-66
2021/12/01 10:38:43;;;;;;;4.93;2.97;;;;;;;6.93;81.90;97134.78;2619012;39;20426;-67
2021/12/01 10:41:16;;;;;;;3.22;1.98;;;;;;;6.94;81.69;97120.66;2618188;54;20078;-67
2021/12/01 10:43:48;;;;;;;13.23;7.35;;;;;;;6.95;82.29;97112.53;2618521;54;20081;-67
2021/12/01 10:46:20;;;;;;;3.38;2.45;;;;;;;6.97;82.08;97122.84;2618446;54;20034;-67
2021/12/01 10:49:03;;;;;;;2.72;1.92;;;;;;;6.95;82.09;97111.75;2618318;54;20089;-67
2021/12/01 10:51:38;;;;;;;1.95;1.23;;;;;;;6.94;82.58;97097.81;2618245;54;20038;-67
2021/12/01 10:54:16;;;;;;;1.98;1.75;;;;;;;6.96;82.94;97094.97;2618807;54;20069;-67
2021/12/01 10:56:48;;;;;;;1.80;1.70;;;;;;;6.98;82.81;97089.47;2618676;54;20038;-66
2021/12/01 10:59:19;;;;;;;3.35;2.63;;;;;;;6.96;82.48;97087.09;2619066;54;20085;-67
2021/12/01 11:01:49;;;;;;;2.65;2.45;;;;;;;6.97;82.73;97091.31;2618368;54;20045;-66
2021/12/01 11:04:39;;;;;;;1.80;1.58;;;;;;;6.98;82.34;97066.66;2618615;54;20026;-66
2021/12/01 11:07:25;;;;;;;4.93;1.83;;;;;;;6.99;82.45;97065.66;2618646;54;20049;-66
2021/12/01 11:10:10;;;;;;;2.20;2.00;;;;;;;7.00;82.88;97075.13;2618478;54;20038;-66
2021/12/01 11:12:43;;;;;;;2.15;1.70;;;;;;;6.98;83.25;97060.59;2618444;54;20030;-65
2021/12/01 11:15:23;;;;;;;2.38;2.17;;;;;;;7.01;83.13;97060.97;2618163;54;20033;-66
2021/12/01 11:17:54;;;;;;;1.65;1.35;;;;;;;7.08;83.01;97063.56;2618275;54;20038;-66
2021/12/01 11:20:43;;;;;;;0.65;0.65;;;;;;;7.10;83.07;97049.22;2618315;54;20065;-66
2021/12/01 11:23:18;;;;;;;1.17;1.08;;;;;;;7.03;83.21;97066.03;2619083;31;20510;-66
2021/12/01 11:25:51;;;;;;;1.30;1.08;;;;;;;7.01;83.33;97053.09;2618588;54;20033;-66
2021/12/01 11:28:25;;;;;;;0.57;0.57;;;;;;;7.00;83.27;97045.44;2618558;54;20038;-66
2021/12/01 11:30:58;;;;;;;2.15;0.90;;;;;;;7.03;83.41;97034.50;2618542;54;20031;-67
2021/12/01 11:33:29;;;;;;;1.23;0.88;;;;;;;7.06;83.26;97039.31;2618373;54;20045;-67
2021/12/01 11:36:00;;;;;;;2.00;1.08;;;;;;;7.07;83.24;97040.94;2618099;47;20034;-66
2021/12/01 11:38:37;;;;;;;0.63;0.63;;;;;;;7.08;83.25;97034.66;2618402;54;20027;-67
2021/12/01 11:41:08;;;;;;;2.03;0.90;;;;;;;7.08;83.40;97027.59;2618743;39;20442;-67
2021/12/01 11:43:41;;;;;;;1.23;0.98;;;;;;;7.14;83.28;97018.03;2618286;54;20038;-67
2021/12/01 11:46:11;;;;;;;1.13;0.90;;;;;;;7.14;82.97;97023.28;2618094;54;20045;-66
2021/12/01 11:48:46;;;;;;;0.80;0.80;;;;;;;7.16;82.90;97023.88;2618062;54;20030;-67
2021/12/01 11:51:19;;;;;;;0.73;0.73;;;;;;;7.11;83.06;97003.50;2618019;54;20027;-67
2021/12/01 11:53:51;;;;;;;0.88;0.70;;;;;;;7.08;82.74;97024.94;2618124;54;20045;-67
2021/12/01 11:56:25;;;;;;;1.00;0.90;;;;;;;7.08;83.11;97014.44;2617991;54;20042;-66
2021/12/01 11:59:01;;;;;;;0.85;0.70;;;;;;;7.11;83.08;96997.47;2619220;31;20536;-66
2021/12/01 12:01:50;;;;;;;1.25;1.10;;;;;;;7.17;83.69;96999.22;2617917;54;20089;-67
2021/12/01 12:04:28;;;;;;;1.15;0.82;;;;;;;7.17;83.45;96983.44;2618368;54;20053;-67
2021/12/01 12:07:05;;;;;;;1.20;1.00;;;;;;;7.18;83.10;96987.69;2618214;39;20141;-66
2021/12/01 12:10:10;;;;;;;0.95;0.77;;;;;;;7.09;83.21;96984.50;2618057;54;20054;-67